sensor_id;sensor_type;location;lat;lon;timestamp;P1;P2;P0
55857;PMS7003;41779;52.360;31.026;2022-10-31T00:04:39;0;0;0
55857;PMS7003;41779;52.360;31.026;2022-10-31T00:09:11;0;0;0
55857;PMS7003;41779;52.360;31.026;2022-10-31T00:13:57;0.2;0;0
55857;PMS7003;41779;52.360;31.026;2022-10-31T00:19:17;0;0;0
55857;PMS7003;41779;52.360;31.026;2022-10-31T00:24:39;0;0;0
55857;PMS7003;41779;52.360;31.026;2022-10-31T00:29:15;0.6;0;0
55857;PMS7003;41779;52.360;31.026;2022-10-31T00:34:25;0.2;0;0
55857;PMS7003;41779;52.360;31.026;2022-10-31T00:39:15;0.3;0;0
55857;PMS7003;41779;52.360;31.026;2022-10-31T00:44:27;0;0;0
55857;PMS7003;41779;52.360;31.026;2022-10-31T00:49:17;0;0;0
55857;PMS7003;41779;52.360;31.026;2022-10-31T00:54:25;0;0;0
55857;PMS7003;41779;52.360;31.026;2022-10-31T00:59:09;0.6;0;0
55857;PMS7003;41779;52.360;31.026;2022-10-31T01:04:13;0.4;0;0
55857;PMS7003;41779;52.360;31.026;2022-10-31T01:09:39;0;0;0
55857;PMS7003;41779;52.360;31.026;2022-10-31T01:14:41;0.2;0;0
55857;PMS7003;41779;52.360;31.026;2022-10-31T01:19:39;0;0;0
55857;PMS7003;41779;52.360;31.026;2022-10-31T01:24:25;0.6;0;0
55857;PMS7003;41779;52.360;31.026;2022-10-31T01:29:07;0;0;0
55857;PMS7003;41779;52.360;31.026;2022-10-31T01:34:21;0;0;0
55857;PMS7003;41779;52.360;31.026;2022-10-31T01:39:41;0;0;0
55857;PMS7003;41779;52.360;31.026;2022-10-31T01:43:58;0.5;0;0
55857;PMS7003;41779;52.360;31.026;2022-10-31T01:49:28;0.2;0;0
55857;PMS7003;41779;52.360;31.026;2022-10-31T01:54:09;0.2;0;0
55857;PMS7003;41779;52.360;31.026;2022-10-31T01:59:43;0;0;0
55857;PMS7003;41779;52.360;31.026;2022-10-31T02:04:09;0.2;0;0
55857;PMS7003;41779;52.360;31.026;2022-10-31T02:09:27;0.4;0;0
55857;PMS7003;41779;52.360;31.026;2022-10-31T02:14:29;0.2;0;0
55857;PMS7003;41779;52.360;31.026;2022-10-31T02:19:09;0.4;0.2;0
55857;PMS7003;41779;52.360;31.026;2022-10-31T02:24:45;0.2;0;0
55857;PMS7003;41779;52.360;31.026;2022-10-31T02:30:03;0.2;0;0
55857;PMS7003;41779;52.360;31.026;2022-10-31T02:34:42;0.2;0;0
55857;PMS7003;41779;52.360;31.026;2022-10-31T02:39:16;0;0;0
55857;PMS7003;41779;52.360;31.026;2022-10-31T02:44:09;0.3;0;0
55857;PMS7003;41779;52.360;31.026;2022-10-31T02:49:22;0.2;0;0
55857;PMS7003;41779;52.360;31.026;2022-10-31T02:54:41;0.4;0;0
55857;PMS7003;41779;52.360;31.026;2022-10-31T02:59:09;0.4;0.2;0.2
55857;PMS7003;41779;52.360;31.026;2022-10-31T03:04:31;1;0.2;0.2
55857;PMS7003;41779;52.360;31.026;2022-10-31T03:08:59;1;0;0
55857;PMS7003;41779;52.360;31.026;2022-10-31T03:14:43;1;0.4;0.2
55857;PMS7003;41779;52.360;31.026;2022-10-31T03:19:22;0.2;0;0
55857;PMS7003;41779;52.360;31.026;2022-10-31T03:24:27;0;0;0
55857;PMS7003;41779;52.360;31.026;2022-10-31T03:29:30;1.2;0.2;0
55857;PMS7003;41779;52.360;31.026;2022-10-31T03:34:29;0.2;0;0
55857;PMS7003;41779;52.360;31.026;2022-10-31T03:39:43;0.2;0;0
55857;PMS7003;41779;52.360;31.026;2022-10-31T03:44:44;0.3;0;0
55857;PMS7003;41779;52.360;31.026;2022-10-31T03:49:43;0.8;0.2;0
55857;PMS7003;41779;52.360;31.026;2022-10-31T03:54:43;0.4;0.2;0.2
55857;PMS7003;41779;52.360;31.026;2022-10-31T03:59:07;0.6;0.2;0
55857;PMS7003;41779;52.360;31.026;2022-10-31T04:04:21;0.8;0.4;0.4
55857;PMS7003;41779;52.360;31.026;2022-10-31T04:09:43;1.4;0.6;0.6
55857;PMS7003;41779;52.360;31.026;2022-10-31T04:14:17;2;0.6;0.4
55857;PMS7003;41779;52.360;31.026;2022-10-31T04:19:29;2;1.2;0.8
55857;PMS7003;41779;52.360;31.026;2022-10-31T04:23:57;0.4;0.4;0.4
55857;PMS7003;41779;52.360;31.026;2022-10-31T04:29:43;1;0;0
55857;PMS7003;41779;52.360;31.026;2022-10-31T04:33:57;0;0;0
55857;PMS7003;41779;52.360;31.026;2022-10-31T04:39:27;0.2;0;0
55857;PMS7003;41779;52.360;31.026;2022-10-31T04:44:31;2;0.3;0.3
55857;PMS7003;41779;52.360;31.026;2022-10-31T04:48:57;1.8;0.4;0.2
55857;PMS7003;41779;52.360;31.026;2022-10-31T04:54:43;1;0;0
55857;PMS7003;41779;52.360;31.026;2022-10-31T04:59:41;2;0.6;0.6
55857;PMS7003;41779;52.360;31.026;2022-10-31T05:04:43;1.4;0.6;0.6
55857;PMS7003;41779;52.360;31.026;2022-10-31T05:09:17;0.6;0.4;0.4
55857;PMS7003;41779;52.360;31.026;2022-10-31T05:14:09;0.2;0;0
55857;PMS7003;41779;52.360;31.026;2022-10-31T05:19:21;0.4;0;0
55857;PMS7003;41779;52.360;31.026;2022-10-31T05:24:43;0.4;0;0
55857;PMS7003;41779;52.360;31.026;2022-10-31T05:29:41;1;0.2;0.2
55857;PMS7003;41779;52.360;31.026;2022-10-31T05:33:59;2.6;1.2;0.6
55857;PMS7003;41779;52.360;31.026;2022-10-31T05:39:09;2.2;1.4;0.8
55857;PMS7003;41779;52.360;31.026;2022-10-31T05:44:43;3.3;1.5;1.3
55857;PMS7003;41779;52.360;31.026;2022-10-31T05:48:57;5;4;3.2
55857;PMS7003;41779;52.360;31.026;2022-10-31T05:54:29;3.4;2.4;2.2
55857;PMS7003;41779;52.360;31.026;2022-10-31T05:59:33;5.6;3.2;2.6
55857;PMS7003;41779;52.360;31.026;2022-10-31T06:03:57;4.8;3;2.2
55857;PMS7003;41779;52.360;31.026;2022-10-31T06:09:43;3.4;2.2;2
55857;PMS7003;41779;52.360;31.026;2022-10-31T06:14:31;4.4;2.2;1.6
55857;PMS7003;41779;52.360;31.026;2022-10-31T06:19:33;1.6;0.8;0.6
55857;PMS7003;41779;52.360;31.026;2022-10-31T06:24:17;2;1.8;1.4
55857;PMS7003;41779;52.360;31.026;2022-10-31T06:29:09;3.6;3;2.6
55857;PMS7003;41779;52.360;31.026;2022-10-31T06:34:21;2.6;1.6;1.6
55857;PMS7003;41779;52.360;31.026;2022-10-31T06:39:41;3.6;2.6;2
55857;PMS7003;41779;52.360;31.026;2022-10-31T06:44:05;3.2;2;1.6
55857;PMS7003;41779;52.360;31.026;2022-10-31T06:49:29;5.8;3.3;2.8
55857;PMS7003;41779;52.360;31.026;2022-10-31T06:53:57;8.6;5.8;4.2
55857;PMS7003;41779;52.360;31.026;2022-10-31T06:59:45;6.4;4.4;3.6
55857;PMS7003;41779;52.360;31.026;2022-10-31T07:04:21;8.6;4.8;4
55857;PMS7003;41779;52.360;31.026;2022-10-31T07:09:29;15.8;12.4;9.2
55857;PMS7003;41779;52.360;31.026;2022-10-31T07:14:33;8.2;6.2;5
55857;PMS7003;41779;52.360;31.026;2022-10-31T07:19:09;2;0.8;0.6
55857;PMS7003;41779;52.360;31.026;2022-10-31T07:24:45;14;6.4;4.4
55857;PMS7003;41779;52.360;31.026;2022-10-31T07:29:45;8.2;6.2;4.2
55857;PMS7003;41779;52.360;31.026;2022-10-31T07:34:45;4;1.2;1
55857;PMS7003;41779;52.360;31.026;2022-10-31T07:39:17;2.6;1.4;1.2
55857;PMS7003;41779;52.360;31.026;2022-10-31T07:43:57;3.8;1.4;1.2
55857;PMS7003;41779;52.360;31.026;2022-10-31T07:49:21;2.5;1;1
55857;PMS7003;41779;52.360;31.026;2022-10-31T07:54:43;2.8;1.4;1.2
55857;PMS7003;41779;52.360;31.026;2022-10-31T07:59:05;4.4;2.4;1.2
55857;PMS7003;41779;52.360;31.026;2022-10-31T08:04:31;2;1;0.6
55857;PMS7003;41779;52.360;31.026;2022-10-31T08:09:21;1;0.4;0.2
55857;PMS7003;41779;52.360;31.026;2022-10-31T08:14:45;1.4;1;0.6
55857;PMS7003;41779;52.360;31.026;2022-10-31T08:19:09;3.6;0.6;0.6
55857;PMS7003;41779;52.360;31.026;2022-10-31T08:24:17;10.6;6.6;5
55857;PMS7003;41779;52.360;31.026;2022-10-31T08:29:31;10.2;6.2;4.6
55857;PMS7003;41779;52.360;31.026;2022-10-31T08:34:09;2.6;1;1
55857;PMS7003;41779;52.360;31.026;2022-10-31T08:38:57;21;13.2;7.6
55857;PMS7003;41779;52.360;31.026;2022-10-31T08:44:33;12;9;6
55857;PMS7003;41779;52.360;31.026;2022-10-31T08:49:19;6;3.5;2
55857;PMS7003;41779;52.360;31.026;2022-10-31T08:54:43;9.8;8.4;5
55857;PMS7003;41779;52.360;31.026;2022-10-31T08:59:45;4.6;1.8;1.4
55857;PMS7003;41779;52.360;31.026;2022-10-31T09:04:19;4.2;2.8;2
55857;PMS7003;41779;52.360;31.026;2022-10-31T09:09:21;4.8;3.4;2
55857;PMS7003;41779;52.360;31.026;2022-10-31T09:14:45;6.2;4.2;2
55857;PMS7003;41779;52.360;31.026;2022-10-31T09:19:45;0.8;0.4;0
55857;PMS7003;41779;52.360;31.026;2022-10-31T09:24:09;1;0;0
55857;PMS7003;41779;52.360;31.026;2022-10-31T09:29:09;3.2;1.2;1
55857;PMS7003;41779;52.360;31.026;2022-10-31T09:34:33;2.6;1.4;1
55857;PMS7003;41779;52.360;31.026;2022-10-31T09:39:33;0.3;0.3;0.3
55857;PMS7003;41779;52.360;31.026;2022-10-31T09:44:20;2.8;0.4;0.2
55857;PMS7003;41779;52.360;31.026;2022-10-31T09:49:02;3.5;1.3;1
55857;PMS7003;41779;52.360;31.026;2022-10-31T09:54:10;1.4;0.4;0.2
55857;PMS7003;41779;52.360;31.026;2022-10-31T09:59:24;0.2;0.2;0
55857;PMS7003;41779;52.360;31.026;2022-10-31T10:03:58;0.8;0.4;0.2
55857;PMS7003;41779;52.360;31.026;2022-10-31T10:09:45;0.8;0.2;0
55857;PMS7003;41779;52.360;31.026;2022-10-31T10:14:36;2;0.6;0.6
55857;PMS7003;41779;52.360;31.026;2022-10-31T10:19:16;0.2;0.2;0.2
55857;PMS7003;41779;52.360;31.026;2022-10-31T10:24:23;0.2;0;0
55857;PMS7003;41779;52.360;31.026;2022-10-31T10:29:25;0.8;0.2;0.2
55857;PMS7003;41779;52.360;31.026;2022-10-31T10:34:45;0.6;0.2;0
55857;PMS7003;41779;52.360;31.026;2022-10-31T10:39:20;2;0.8;0.6
55857;PMS7003;41779;52.360;31.026;2022-10-31T10:44:09;3.4;0.6;0.4
55857;PMS7003;41779;52.360;31.026;2022-10-31T10:49:34;1.3;0;0
55857;PMS7003;41779;52.360;31.026;2022-10-31T10:54:37;1.8;0.6;0.6
55857;PMS7003;41779;52.360;31.026;2022-10-31T10:59:18;3.4;1.6;1
55857;PMS7003;41779;52.360;31.026;2022-10-31T11:03:57;6;2.6;1.8
55857;PMS7003;41779;52.360;31.026;2022-10-31T11:09:08;0.6;0.6;0.4
55857;PMS7003;41779;52.360;31.026;2022-10-31T11:14:23;3.6;1;0.6
55857;PMS7003;41779;52.360;31.026;2022-10-31T11:19:19;1.8;0.8;0.4
55857;PMS7003;41779;52.360;31.026;2022-10-31T11:24:45;0.8;0.2;0.2
55857;PMS7003;41779;52.360;31.026;2022-10-31T11:29:33;1.4;0.6;0.2
55857;PMS7003;41779;52.360;31.026;2022-10-31T11:33:57;1;0.6;0.4
55857;PMS7003;41779;52.360;31.026;2022-10-31T11:39:13;1.2;0.4;0.2
55857;PMS7003;41779;52.360;31.026;2022-10-31T11:44:45;1;0.4;0.2
55857;PMS7003;41779;52.360;31.026;2022-10-31T11:49:43;0.4;0.4;0.4
55857;PMS7003;41779;52.360;31.026;2022-10-31T11:53:58;0.3;0.3;0.3
55857;PMS7003;41779;52.360;31.026;2022-10-31T11:59:22;0.6;0.6;0.6
55857;PMS7003;41779;52.360;31.026;2022-10-31T12:04:35;1.6;1;0.6
55857;PMS7003;41779;52.360;31.026;2022-10-31T12:09:33;3.8;2.8;2.6
55857;PMS7003;41779;52.360;31.026;2022-10-31T12:14:23;1;0.2;0.2
55857;PMS7003;41779;52.360;31.026;2022-10-31T12:18:58;0.8;0.2;0
55857;PMS7003;41779;52.360;31.026;2022-10-31T12:24:12;2.4;1.6;1.2
55857;PMS7003;41779;52.360;31.026;2022-10-31T12:29:37;1.6;0.4;0.4
55857;PMS7003;41779;52.360;31.026;2022-10-31T12:33:59;4.6;3.6;2.2
55857;PMS7003;41779;52.360;31.026;2022-10-31T12:39:44;1.6;1.2;1
55857;PMS7003;41779;52.360;31.026;2022-10-31T12:43:59;4.2;2.6;2.2
55857;PMS7003;41779;52.360;31.026;2022-10-31T12:49:34;1.6;0.8;0.8
55857;PMS7003;41779;52.360;31.026;2022-10-31T12:54:26;2.5;0.8;0.8
55857;PMS7003;41779;52.360;31.026;2022-10-31T12:59:29;2;1.4;1.2
55857;PMS7003;41779;52.360;31.026;2022-10-31T13:04:46;1.8;0.8;0.8
55857;PMS7003;41779;52.360;31.026;2022-10-31T13:09:45;1.8;1.4;0.8
55857;PMS7003;41779;52.360;31.026;2022-10-31T13:14:10;3;2.2;1.8
55857;PMS7003;41779;52.360;31.026;2022-10-31T13:19:34;1.2;0.8;0.8
55857;PMS7003;41779;52.360;31.026;2022-10-31T13:24:44;1;0.4;0.2
55857;PMS7003;41779;52.360;31.026;2022-10-31T13:29:18;1.6;0.6;0.6
55857;PMS7003;41779;52.360;31.026;2022-10-31T13:34:46;1;0.4;0.2
55857;PMS7003;41779;52.360;31.026;2022-10-31T13:39:19;1.8;0.2;0.2
55857;PMS7003;41779;52.360;31.026;2022-10-31T13:44:45;1.8;1.2;0.8
55857;PMS7003;41779;52.360;31.026;2022-10-31T13:48:57;3.4;2.2;1.4
55857;PMS7003;41779;52.360;31.026;2022-10-31T13:54:44;4.3;1.8;1.8
55857;PMS7003;41779;52.360;31.026;2022-10-31T13:59:14;5.8;3.8;2.6
55857;PMS7003;41779;52.360;31.026;2022-10-31T14:04:13;2.6;1.2;1.2
55857;PMS7003;41779;52.360;31.026;2022-10-31T14:09:18;2.8;1.8;1.6
55857;PMS7003;41779;52.360;31.026;2022-10-31T14:14:21;1.6;1;1
55857;PMS7003;41779;52.360;31.026;2022-10-31T14:19:43;6;3.2;2.4
55857;PMS7003;41779;52.360;31.026;2022-10-31T14:24:43;6.8;4.4;3.2
55857;PMS7003;41779;52.360;31.026;2022-10-31T14:29:25;8;5.6;4
55857;PMS7003;41779;52.360;31.026;2022-10-31T14:34:32;10;4.2;2.8
55857;PMS7003;41779;52.360;31.026;2022-10-31T14:39:31;13.6;10;6.4
55857;PMS7003;41779;52.360;31.026;2022-10-31T14:44:36;13;9.8;6.8
55857;PMS7003;41779;52.360;31.026;2022-10-31T14:49:48;8.6;5;3.2
55857;PMS7003;41779;52.360;31.026;2022-10-31T14:54:10;13.4;9.4;6.2
55857;PMS7003;41779;52.360;31.026;2022-10-31T14:59:46;14.8;10;7.8
55857;PMS7003;41779;52.360;31.026;2022-10-31T15:04:18;11.2;7.2;5.8
55857;PMS7003;41779;52.360;31.026;2022-10-31T15:09:43;19.2;10.4;8
55857;PMS7003;41779;52.360;31.026;2022-10-31T15:14:22;15.3;10.8;8
55857;PMS7003;41779;52.360;31.026;2022-10-31T15:18:58;11.2;7.8;6.4
55857;PMS7003;41779;52.360;31.026;2022-10-31T15:24:10;11;8.6;6.6
55857;PMS7003;41779;52.360;31.026;2022-10-31T15:29:31;15.8;12.4;9.4
55857;PMS7003;41779;52.360;31.026;2022-10-31T15:34:45;17.2;13.4;10.4
55857;PMS7003;41779;52.360;31.026;2022-10-31T15:39:46;12.6;9.6;7
55857;PMS7003;41779;52.360;31.026;2022-10-31T15:43:59;13.8;10.6;8.2
55857;PMS7003;41779;52.360;31.026;2022-10-31T15:49:24;12.8;9.8;7.6
55857;PMS7003;41779;52.360;31.026;2022-10-31T15:54:29;10;7;5.2
55857;PMS7003;41779;52.360;31.026;2022-10-31T15:59:17;10.4;7.4;5.8
55857;PMS7003;41779;52.360;31.026;2022-10-31T16:04:49;8.6;6.2;4.2
55857;PMS7003;41779;52.360;31.026;2022-10-31T16:09:18;9.8;6.8;5.8
55857;PMS7003;41779;52.360;31.026;2022-10-31T16:14:43;6.6;5.6;4.4
55857;PMS7003;41779;52.360;31.026;2022-10-31T16:19:18;9;6;4.8
55857;PMS7003;41779;52.360;31.026;2022-10-31T16:24:44;9.6;7.2;5.4
55857;PMS7003;41779;52.360;31.026;2022-10-31T16:29:24;12.6;8.4;7
55857;PMS7003;41779;52.360;31.026;2022-10-31T16:34:01;9.8;7;5.8
55857;PMS7003;41779;52.360;31.026;2022-10-31T16:39:19;9.6;6.8;5.8
55857;PMS7003;41779;52.360;31.026;2022-10-31T16:44:25;6.6;5.4;4.6
55857;PMS7003;41779;52.360;31.026;2022-10-31T16:49:43;10.4;7.4;6.4
55857;PMS7003;41779;52.360;31.026;2022-10-31T16:54:43;14;10.8;7.6
55857;PMS7003;41779;52.360;31.026;2022-10-31T16:59:10;12.4;7.8;6.8
55857;PMS7003;41779;52.360;31.026;2022-10-31T17:04:31;10;6.6;4.2
55857;PMS7003;41779;52.360;31.026;2022-10-31T17:09:31;6.2;4.4;3.6
55857;PMS7003;41779;52.360;31.026;2022-10-31T17:14:29;8;4.4;3.4
55857;PMS7003;41779;52.360;31.026;2022-10-31T17:19:31;8.3;6.3;5.3
55857;PMS7003;41779;52.360;31.026;2022-10-31T17:23:57;10.6;7.4;5.4
55857;PMS7003;41779;52.360;31.026;2022-10-31T17:29:41;10.6;6.2;5
55857;PMS7003;41779;52.360;31.026;2022-10-31T17:34:17;7.4;6.4;5.4
55857;PMS7003;41779;52.360;31.026;2022-10-31T17:39:31;10.2;6.6;5.4
55857;PMS7003;41779;52.360;31.026;2022-10-31T17:44:17;7.8;5.2;4.6
55857;PMS7003;41779;52.360;31.026;2022-10-31T17:49:09;8.8;6.4;5.2
55857;PMS7003;41779;52.360;31.026;2022-10-31T17:54:19;11.6;9.2;7
55857;PMS7003;41779;52.360;31.026;2022-10-31T17:59:27;8.2;6.2;5
55857;PMS7003;41779;52.360;31.026;2022-10-31T18:03:57;8;6.8;5.8
55857;PMS7003;41779;52.360;31.026;2022-10-31T18:09:41;8;6;5.4
55857;PMS7003;41779;52.360;31.026;2022-10-31T18:13:57;4.8;3.4;2.6
55857;PMS7003;41779;52.360;31.026;2022-10-31T18:19:43;5.5;4.5;3
55857;PMS7003;41779;52.360;31.026;2022-10-31T18:24:43;5.8;2.5;2
55857;PMS7003;41779;52.360;31.026;2022-10-31T18:29:27;3.2;2.4;2
55857;PMS7003;41779;52.360;31.026;2022-10-31T18:34:31;4.2;3.6;2.8
55857;PMS7003;41779;52.360;31.026;2022-10-31T18:39:07;7;6;4
55857;PMS7003;41779;52.360;31.026;2022-10-31T18:44:43;9.6;6.2;4
55857;PMS7003;41779;52.360;31.026;2022-10-31T18:48:57;8.8;6.6;5
55857;PMS7003;41779;52.360;31.026;2022-10-31T18:54:29;7;6.6;5.2
55857;PMS7003;41779;52.360;31.026;2022-10-31T18:59:43;8.6;4.4;3.8
55857;PMS7003;41779;52.360;31.026;2022-10-31T19:04:31;6;4.8;4.4
55857;PMS7003;41779;52.360;31.026;2022-10-31T19:08:57;7.2;5;3.4
55857;PMS7003;41779;52.360;31.026;2022-10-31T19:14:27;5;3.8;3.2
55857;PMS7003;41779;52.360;31.026;2022-10-31T19:19:17;6.8;4;3
55857;PMS7003;41779;52.360;31.026;2022-10-31T19:24:44;4.2;4;3
55857;PMS7003;41779;52.360;31.026;2022-10-31T19:29:19;7.6;5.6;3.8
55857;PMS7003;41779;52.360;31.026;2022-10-31T19:34:41;6.6;5;3.4
55857;PMS7003;41779;52.360;31.026;2022-10-31T19:39:19;5.4;3.6;2.8
55857;PMS7003;41779;52.360;31.026;2022-10-31T19:44:29;4.8;2.8;2.4
55857;PMS7003;41779;52.360;31.026;2022-10-31T19:49:29;2.8;2;1.8
55857;PMS7003;41779;52.360;31.026;2022-10-31T19:54:15;5.4;3;2
55857;PMS7003;41779;52.360;31.026;2022-10-31T19:59:43;4.4;2.4;1.8
55857;PMS7003;41779;52.360;31.026;2022-10-31T20:04:15;3.2;2.2;1.6
55857;PMS7003;41779;52.360;31.026;2022-10-31T20:09:29;3.2;2.4;2
55857;PMS7003;41779;52.360;31.026;2022-10-31T20:13:57;3.8;2.2;1.6
55857;PMS7003;41779;52.360;31.026;2022-10-31T20:19:17;3.3;1.3;1
55857;PMS7003;41779;52.360;31.026;2022-10-31T20:24:19;2.8;1.6;1.4
55857;PMS7003;41779;52.360;31.026;2022-10-31T20:29:27;4.4;1.6;1.6
55857;PMS7003;41779;52.360;31.026;2022-10-31T20:34:17;2.4;1.8;1
55857;PMS7003;41779;52.360;31.026;2022-10-31T20:39:41;2.4;1;0.6
55857;PMS7003;41779;52.360;31.026;2022-10-31T20:44:07;3;1.6;1
55857;PMS7003;41779;52.360;31.026;2022-10-31T20:49:41;2.2;2;1.8
55857;PMS7003;41779;52.360;31.026;2022-10-31T20:54:31;2.2;1.4;1.2
55857;PMS7003;41779;52.360;31.026;2022-10-31T20:59:29;1.2;1.2;1
55857;PMS7003;41779;52.360;31.026;2022-10-31T21:04:29;4.2;2;1.8
55857;PMS7003;41779;52.360;31.026;2022-10-31T21:09:17;2.6;2;1.4
55857;PMS7003;41779;52.360;31.026;2022-10-31T21:14:43;1.8;1.6;1
55857;PMS7003;41779;52.360;31.026;2022-10-31T21:18:58;2.3;2;1.8
55857;PMS7003;41779;52.360;31.026;2022-10-31T21:24:31;3.2;2;1.6
55857;PMS7003;41779;52.360;31.026;2022-10-31T21:29:08;2.8;1.8;1.6
55857;PMS7003;41779;52.360;31.026;2022-10-31T21:34:07;3.2;1.8;1.6
55857;PMS7003;41779;52.360;31.026;2022-10-31T21:38:57;3.4;1.8;1.6
55857;PMS7003;41779;52.360;31.026;2022-10-31T21:44:29;2.4;2;1.2
55857;PMS7003;41779;52.360;31.026;2022-10-31T21:49:17;2.4;1.4;1.2
55857;PMS7003;41779;52.360;31.026;2022-10-31T21:54:43;2.6;2;1.6
55857;PMS7003;41779;52.360;31.026;2022-10-31T21:59:03;2.2;1.4;1.4
55857;PMS7003;41779;52.360;31.026;2022-10-31T22:04:39;2.8;0.8;0.8
55857;PMS7003;41779;52.360;31.026;2022-10-31T22:09:25;2.4;1.2;1
55857;PMS7003;41779;52.360;31.026;2022-10-31T22:14:25;2.4;1.6;1.2
55857;PMS7003;41779;52.360;31.026;2022-10-31T22:19:25;1.6;1.2;1
55857;PMS7003;41779;52.360;31.026;2022-10-31T22:24:13;2;1.3;1.3
55857;PMS7003;41779;52.360;31.026;2022-10-31T22:29:37;2.6;2.2;1.4
55857;PMS7003;41779;52.360;31.026;2022-10-31T22:33:57;2.4;1.4;1.2
55857;PMS7003;41779;52.360;31.026;2022-10-31T22:39:25;3.4;1.8;1.4
55857;PMS7003;41779;52.360;31.026;2022-10-31T22:44:03;4;1.8;1.4
55857;PMS7003;41779;52.360;31.026;2022-10-31T22:48:58;2.2;1.6;1.4
55857;PMS7003;41779;52.360;31.026;2022-10-31T22:54:16;2.8;1.2;1.2
55857;PMS7003;41779;52.360;31.026;2022-10-31T22:59:21;3.4;1.6;0.8
55857;PMS7003;41779;52.360;31.026;2022-10-31T23:04:13;3.8;1.6;1.6
55857;PMS7003;41779;52.360;31.026;2022-10-31T23:09:37;3.2;1.6;1.4
55857;PMS7003;41779;52.360;31.026;2022-10-31T23:14:16;5.2;1.6;1.4
55857;PMS7003;41779;52.360;31.026;2022-10-31T23:19:37;2.2;1.6;1.6
55857;PMS7003;41779;52.360;31.026;2022-10-31T23:24:13;2.8;1.3;0.8
55857;PMS7003;41779;52.360;31.026;2022-10-31T23:29:25;3.6;1.6;1.2
55857;PMS7003;41779;52.360;31.026;2022-10-31T23:34:17;2.6;2;1.6
55857;PMS7003;41779;52.360;31.026;2022-10-31T23:38:55;4.6;1.4;1.2
55857;PMS7003;41779;52.360;31.026;2022-10-31T23:44:35;3.2;1.2;1
55857;PMS7003;41779;52.360;31.026;2022-10-31T23:49:11;4.4;1.2;1.2
55857;PMS7003;41779;52.360;31.026;2022-10-31T23:54:24;2;1.2;0.6
55857;PMS7003;41779;52.360;31.026;2022-10-31T23:59:09;3.8;1.8;1.4
